sensor_id;sensor_type;location;lat;lon;timestamp;pressure;altitude;pressure_sealevel;temperature;humidity
63096;BME280;49184;55.596;37.770;2022-07-23T00:01:26;99563.84;;;20.22;60.59
63096;BME280;49184;55.596;37.770;2022-07-23T00:03:53;99549.38;;;20.09;60.74
63096;BME280;49184;55.596;37.770;2022-07-23T00:06:21;99540.19;;;20.05;60.33
63096;BME280;49184;55.596;37.770;2022-07-23T00:08:47;99581.81;;;20.28;60.34
63096;BME280;49184;55.596;37.770;2022-07-23T00:11:15;99518.06;;;19.85;60.85
63096;BME280;49184;55.596;37.770;2022-07-23T00:13:41;99539.63;;;19.95;60.78
63096;BME280;49184;55.596;37.770;2022-07-23T00:16:08;99533.66;;;19.93;60.84
63096;BME280;49184;55.596;37.770;2022-07-23T00:18:34;99558.06;;;20.07;60.93
63096;BME280;49184;55.596;37.770;2022-07-23T00:21:00;99541.22;;;19.97;60.80
63096;BME280;49184;55.596;37.770;2022-07-23T00:23:26;99540.47;;;20.00;60.82
63096;BME280;49184;55.596;37.770;2022-07-23T00:25:55;99556.44;;;20.06;60.92
63096;BME280;49184;55.596;37.770;2022-07-23T00:28:21;99531.69;;;19.94;60.63
63096;BME280;49184;55.596;37.770;2022-07-23T00:30:47;99524.47;;;19.89;60.86
63096;BME280;49184;55.596;37.770;2022-07-23T00:33:13;99562.38;;;20.05;60.82
63096;BME280;49184;55.596;37.770;2022-07-23T00:35:42;99577.72;;;20.22;60.59
63096;BME280;49184;55.596;37.770;2022-07-23T00:38:10;99565.28;;;20.12;60.85
63096;BME280;49184;55.596;37.770;2022-07-23T00:40:37;99585.72;;;20.23;61.31
63096;BME280;49184;55.596;37.770;2022-07-23T00:43:05;99545.97;;;19.96;60.90
63096;BME280;49184;55.596;37.770;2022-07-23T00:45:32;99527.19;;;19.86;61.01
63096;BME280;49184;55.596;37.770;2022-07-23T00:47:59;99586.44;;;20.20;60.99
63096;BME280;49184;55.596;37.770;2022-07-23T00:50:26;99548.69;;;19.92;60.80
63096;BME280;49184;55.596;37.770;2022-07-23T00:52:52;99520.78;;;19.82;61.21
63096;BME280;49184;55.596;37.770;2022-07-23T00:55:19;99546.78;;;19.97;60.82
63096;BME280;49184;55.596;37.770;2022-07-23T00:57:47;99537.19;;;19.90;60.74
63096;BME280;49184;55.596;37.770;2022-07-23T01:00:14;99542.28;;;19.88;60.84
63096;BME280;49184;55.596;37.770;2022-07-23T01:02:41;99551.97;;;19.98;61.06
63096;BME280;49184;55.596;37.770;2022-07-23T01:05:08;99578.31;;;20.08;60.81
63096;BME280;49184;55.596;37.770;2022-07-23T01:07:35;99573.94;;;20.07;60.74
63096;BME280;49184;55.596;37.770;2022-07-23T01:10:03;99567.94;;;20.05;60.91
63096;BME280;49184;55.596;37.770;2022-07-23T01:12:30;99574.28;;;20.05;61.80
63096;BME280;49184;55.596;37.770;2022-07-23T01:14:58;99553.44;;;19.92;61.18
63096;BME280;49184;55.596;37.770;2022-07-23T01:17:30;99559.84;;;19.96;60.99
63096;BME280;49184;55.596;37.770;2022-07-23T01:19:56;99548.28;;;19.90;61.28
63096;BME280;49184;55.596;37.770;2022-07-23T01:22:28;99550.72;;;19.95;61.33
63096;BME280;49184;55.596;37.770;2022-07-23T01:24:56;99555.94;;;19.97;61.30
63096;BME280;49184;55.596;37.770;2022-07-23T01:27:24;99529.88;;;19.82;61.54
63096;BME280;49184;55.596;37.770;2022-07-23T01:29:57;99556.28;;;19.95;61.37
63096;BME280;49184;55.596;37.770;2022-07-23T01:32:25;99562.22;;;19.94;61.50
63096;BME280;49184;55.596;37.770;2022-07-23T01:34:51;99554.63;;;19.91;61.77
63096;BME280;49184;55.596;37.770;2022-07-23T01:37:19;99533.41;;;19.79;61.90
63096;BME280;49184;55.596;37.770;2022-07-23T01:39:48;99577.91;;;20.09;62.13
63096;BME280;49184;55.596;37.770;2022-07-23T01:42:14;99527.00;;;19.75;62.22
63096;BME280;49184;55.596;37.770;2022-07-23T01:44:41;99587.38;;;20.05;62.44
63096;BME280;49184;55.596;37.770;2022-07-23T01:47:12;99547.59;;;19.74;62.27
63096;BME280;49184;55.596;37.770;2022-07-23T01:49:41;99550.78;;;19.76;62.31
63096;BME280;49184;55.596;37.770;2022-07-23T01:52:39;99566.06;;;19.89;62.44
63096;BME280;49184;55.596;37.770;2022-07-23T01:55:07;99530.81;;;19.67;62.56
63096;BME280;49184;55.596;37.770;2022-07-23T01:57:36;99556.53;;;19.87;62.52
63096;BME280;49184;55.596;37.770;2022-07-23T02:00:04;99569.59;;;19.86;62.55
63096;BME280;49184;55.596;37.770;2022-07-23T02:02:40;99561.59;;;19.81;62.91
63096;BME280;49184;55.596;37.770;2022-07-23T02:05:06;99580.41;;;19.91;62.95
63096;BME280;49184;55.596;37.770;2022-07-23T02:07:33;99537.81;;;19.61;63.09
63096;BME280;49184;55.596;37.770;2022-07-23T02:10:06;99539.78;;;19.60;63.24
63096;BME280;49184;55.596;37.770;2022-07-23T02:12:32;99577.63;;;19.91;63.74
63096;BME280;49184;55.596;37.770;2022-07-23T02:15:19;99540.59;;;19.61;63.70
63096;BME280;49184;55.596;37.770;2022-07-23T02:17:45;99564.16;;;19.70;63.59
63096;BME280;49184;55.596;37.770;2022-07-23T02:20:12;99553.75;;;19.64;63.66
63096;BME280;49184;55.596;37.770;2022-07-23T02:22:38;99596.91;;;19.84;63.83
63096;BME280;49184;55.596;37.770;2022-07-23T02:25:06;99558.91;;;19.65;64.13
63096;BME280;49184;55.596;37.770;2022-07-23T02:27:34;99530.44;;;19.49;64.10
63096;BME280;49184;55.596;37.770;2022-07-23T02:30:16;99583.47;;;19.86;64.25
63096;BME280;49184;55.596;37.770;2022-07-23T02:32:42;99551.84;;;19.68;64.10
63096;BME280;49184;55.596;37.770;2022-07-23T02:35:10;99545.84;;;19.66;64.37
63096;BME280;49184;55.596;37.770;2022-07-23T02:38:01;99578.06;;;19.93;64.58
63096;BME280;49184;55.596;37.770;2022-07-23T02:40:29;99586.38;;;19.93;64.26
63096;BME280;49184;55.596;37.770;2022-07-23T02:42:56;99566.00;;;19.86;64.55
63096;BME280;49184;55.596;37.770;2022-07-23T02:45:23;99560.41;;;19.82;64.66
63096;BME280;49184;55.596;37.770;2022-07-23T02:47:51;99573.94;;;20.07;64.73
63096;BME280;49184;55.596;37.770;2022-07-23T02:50:21;99555.72;;;19.86;64.31
63096;BME280;49184;55.596;37.770;2022-07-23T02:52:47;99557.88;;;19.97;64.57
63096;BME280;49184;55.596;37.770;2022-07-23T02:55:13;99550.59;;;19.88;64.54
63096;BME280;49184;55.596;37.770;2022-07-23T02:57:39;99567.09;;;20.01;64.66
63096;BME280;49184;55.596;37.770;2022-07-23T03:00:07;99543.69;;;19.79;64.16
63096;BME280;49184;55.596;37.770;2022-07-23T03:02:33;99570.94;;;19.96;64.25
63096;BME280;49184;55.596;37.770;2022-07-23T03:05:00;99578.53;;;19.99;64.50
63096;BME280;49184;55.596;37.770;2022-07-23T03:07:26;99558.94;;;19.88;64.33
63096;BME280;49184;55.596;37.770;2022-07-23T03:09:53;99548.97;;;19.84;64.25
63096;BME280;49184;55.596;37.770;2022-07-23T03:12:29;99570.78;;;20.08;64.35
63096;BME280;49184;55.596;37.770;2022-07-23T03:14:55;99570.81;;;20.12;64.34
63096;BME280;49184;55.596;37.770;2022-07-23T03:17:21;99584.88;;;20.23;63.77
63096;BME280;49184;55.596;37.770;2022-07-23T03:19:47;99557.53;;;19.98;63.82
63096;BME280;49184;55.596;37.770;2022-07-23T03:22:14;99532.78;;;19.89;64.01
63096;BME280;49184;55.596;37.770;2022-07-23T03:24:41;99597.72;;;20.31;64.14
63096;BME280;49184;55.596;37.770;2022-07-23T03:27:29;99594.19;;;20.34;64.05
63096;BME280;49184;55.596;37.770;2022-07-23T03:29:58;99570.53;;;20.17;64.07
63096;BME280;49184;55.596;37.770;2022-07-23T03:32:25;99593.03;;;20.35;64.33
63096;BME280;49184;55.596;37.770;2022-07-23T03:34:51;99607.50;;;20.48;64.16
63096;BME280;49184;55.596;37.770;2022-07-23T03:37:24;99577.97;;;20.36;64.12
63096;BME280;49184;55.596;37.770;2022-07-23T03:39:50;99549.13;;;20.17;64.10
63096;BME280;49184;55.596;37.770;2022-07-23T03:42:18;99588.81;;;20.45;63.91
63096;BME280;49184;55.596;37.770;2022-07-23T03:44:46;99570.97;;;20.46;63.76
63096;BME280;49184;55.596;37.770;2022-07-23T03:47:12;99603.50;;;20.68;63.45
63096;BME280;49184;55.596;37.770;2022-07-23T03:49:38;99602.31;;;20.69;63.06
63096;BME280;49184;55.596;37.770;2022-07-23T03:52:05;99577.19;;;20.62;63.14
63096;BME280;49184;55.596;37.770;2022-07-23T03:54:34;99592.06;;;20.73;63.42
63096;BME280;49184;55.596;37.770;2022-07-23T03:57:01;99587.34;;;20.77;63.20
63096;BME280;49184;55.596;37.770;2022-07-23T03:59:32;99560.13;;;20.60;62.97
63096;BME280;49184;55.596;37.770;2022-07-23T04:02:05;99561.81;;;20.68;62.87
63096;BME280;49184;55.596;37.770;2022-07-23T04:04:34;99584.28;;;20.86;62.63
63096;BME280;49184;55.596;37.770;2022-07-23T04:07:01;99552.34;;;20.73;62.74
63096;BME280;49184;55.596;37.770;2022-07-23T04:09:27;99598.00;;;21.02;62.34
63096;BME280;49184;55.596;37.770;2022-07-23T04:12:10;99578.47;;;20.95;62.51
63096;BME280;49184;55.596;37.770;2022-07-23T04:14:36;99583.63;;;20.93;62.00
63096;BME280;49184;55.596;37.770;2022-07-23T04:17:40;99559.34;;;20.90;62.60
63096;BME280;49184;55.596;37.770;2022-07-23T04:20:07;99561.47;;;21.00;62.33
63096;BME280;49184;55.596;37.770;2022-07-23T04:22:45;99596.03;;;21.32;62.89
63096;BME280;49184;55.596;37.770;2022-07-23T04:25:38;99610.13;;;21.47;62.19
63096;BME280;49184;55.596;37.770;2022-07-23T04:28:05;99582.50;;;21.31;62.13
63096;BME280;49184;55.596;37.770;2022-07-23T04:30:31;99583.44;;;21.42;62.84
63096;BME280;49184;55.596;37.770;2022-07-23T04:33:01;99561.81;;;21.28;61.98
63096;BME280;49184;55.596;37.770;2022-07-23T04:35:32;99570.25;;;21.35;61.59
63096;BME280;49184;55.596;37.770;2022-07-23T04:38:12;99564.81;;;21.43;61.78
63096;BME280;49184;55.596;37.770;2022-07-23T04:40:39;99590.03;;;21.61;61.39
63096;BME280;49184;55.596;37.770;2022-07-23T04:43:05;99539.31;;;21.37;61.54
63096;BME280;49184;55.596;37.770;2022-07-23T04:45:39;99532.19;;;21.40;61.72
63096;BME280;49184;55.596;37.770;2022-07-23T04:48:17;99579.84;;;21.75;60.91
63096;BME280;49184;55.596;37.770;2022-07-23T04:50:44;99576.78;;;21.88;61.25
63096;BME280;49184;55.596;37.770;2022-07-23T04:53:29;99573.66;;;21.93;59.82
63096;BME280;49184;55.596;37.770;2022-07-23T04:56:04;99528.59;;;21.76;60.38
63096;BME280;49184;55.596;37.770;2022-07-23T04:58:34;99575.41;;;22.12;59.67
63096;BME280;49184;55.596;37.770;2022-07-23T05:04:37;99535.56;;;22.00;58.93
63096;BME280;49184;55.596;37.770;2022-07-23T05:07:05;99579.25;;;22.37;58.91
63096;BME280;49184;55.596;37.770;2022-07-23T05:09:33;99587.66;;;22.48;59.12
63096;BME280;49184;55.596;37.770;2022-07-23T05:12:00;99545.38;;;22.32;58.68
63096;BME280;49184;55.596;37.770;2022-07-23T05:14:27;99585.78;;;22.59;58.54
63096;BME280;49184;55.596;37.770;2022-07-23T05:16:54;99539.13;;;22.45;58.61
63096;BME280;49184;55.596;37.770;2022-07-23T05:19:22;99584.28;;;22.76;58.36
63096;BME280;49184;55.596;37.770;2022-07-23T05:21:49;99579.97;;;22.86;57.68
63096;BME280;49184;55.596;37.770;2022-07-23T05:24:15;99560.78;;;22.77;57.49
63096;BME280;49184;55.596;37.770;2022-07-23T05:26:41;99569.63;;;22.86;58.26
63096;BME280;49184;55.596;37.770;2022-07-23T05:29:10;99544.88;;;22.78;58.58
63096;BME280;49184;55.596;37.770;2022-07-23T05:31:53;99556.97;;;22.96;58.78
63096;BME280;49184;55.596;37.770;2022-07-23T05:34:20;99587.72;;;23.17;57.14
63096;BME280;49184;55.596;37.770;2022-07-23T05:36:56;99528.16;;;22.81;57.22
63096;BME280;49184;55.596;37.770;2022-07-23T05:39:47;99594.94;;;23.29;57.48
63096;BME280;49184;55.596;37.770;2022-07-23T05:42:13;99533.44;;;22.93;56.25
63096;BME280;49184;55.596;37.770;2022-07-23T05:44:40;99596.19;;;23.42;57.32
63096;BME280;49184;55.596;37.770;2022-07-23T05:47:07;99553.84;;;23.15;57.16
63096;BME280;49184;55.596;37.770;2022-07-23T05:49:34;99540.28;;;23.10;56.79
63096;BME280;49184;55.596;37.770;2022-07-23T05:52:29;99537.56;;;23.25;55.63
63096;BME280;49184;55.596;37.770;2022-07-23T05:55:19;99552.34;;;23.39;56.16
63096;BME280;49184;55.596;37.770;2022-07-23T05:57:55;99557.94;;;23.50;55.64
63096;BME280;49184;55.596;37.770;2022-07-23T06:07:39;99586.78;;;23.86;55.45
63096;BME280;49184;55.596;37.770;2022-07-23T06:10:06;99554.06;;;23.73;55.34
63096;BME280;49184;55.596;37.770;2022-07-23T06:12:33;99552.47;;;23.75;55.01
63096;BME280;49184;55.596;37.770;2022-07-23T06:14:59;99554.84;;;23.80;54.52
63096;BME280;49184;55.596;37.770;2022-07-23T06:17:27;99518.09;;;23.57;53.92
63096;BME280;49184;55.596;37.770;2022-07-23T06:19:54;99536.94;;;23.85;53.69
63096;BME280;49184;55.596;37.770;2022-07-23T06:22:39;99557.69;;;24.05;53.92
63096;BME280;49184;55.596;37.770;2022-07-23T06:25:06;99544.50;;;23.95;52.66
63096;BME280;49184;55.596;37.770;2022-07-23T06:27:53;99542.94;;;23.94;53.17
63096;BME280;49184;55.596;37.770;2022-07-23T06:30:19;99561.25;;;24.09;53.65
63096;BME280;49184;55.596;37.770;2022-07-23T06:32:46;99582.00;;;24.33;53.90
63096;BME280;49184;55.596;37.770;2022-07-23T06:35:15;99532.53;;;24.12;53.44
63096;BME280;49184;55.596;37.770;2022-07-23T06:37:41;99580.44;;;24.47;51.71
63096;BME280;49184;55.596;37.770;2022-07-23T06:40:09;99552.09;;;24.34;53.26
63096;BME280;49184;55.596;37.770;2022-07-23T06:42:37;99560.50;;;24.41;52.60
63096;BME280;49184;55.596;37.770;2022-07-23T06:45:30;99569.66;;;24.56;51.78
63096;BME280;49184;55.596;37.770;2022-07-23T06:48:01;99574.44;;;24.63;51.33
63096;BME280;49184;55.596;37.770;2022-07-23T06:50:29;99538.94;;;24.49;51.91
63096;BME280;49184;55.596;37.770;2022-07-23T06:52:56;99539.31;;;24.54;51.98
63096;BME280;49184;55.596;37.770;2022-07-23T06:55:22;99542.88;;;24.66;53.03
63096;BME280;49184;55.596;37.770;2022-07-23T06:57:48;99566.00;;;24.88;52.62
63096;BME280;49184;55.596;37.770;2022-07-23T07:00:16;99517.34;;;24.60;52.14
63096;BME280;49184;55.596;37.770;2022-07-23T07:02:48;99540.88;;;24.80;50.85
63096;BME280;49184;55.596;37.770;2022-07-23T07:05:18;99538.88;;;24.81;51.31
63096;BME280;49184;55.596;37.770;2022-07-23T07:07:50;99561.94;;;25.03;51.51
63096;BME280;49184;55.596;37.770;2022-07-23T07:13:34;99565.13;;;25.08;51.03
63096;BME280;49184;55.596;37.770;2022-07-23T07:16:00;99547.59;;;25.01;50.00
63096;BME280;49184;55.596;37.770;2022-07-23T07:18:26;99503.31;;;24.81;51.34
63096;BME280;49184;55.596;37.770;2022-07-23T07:20:59;99558.69;;;25.26;50.35
63096;BME280;49184;55.596;37.770;2022-07-23T07:23:50;99554.66;;;25.34;50.92
63096;BME280;49184;55.596;37.770;2022-07-23T07:26:16;99522.78;;;25.06;48.82
63096;BME280;49184;55.596;37.770;2022-07-23T07:29:10;99565.03;;;25.41;47.83
63096;BME280;49184;55.596;37.770;2022-07-23T07:31:43;99514.00;;;25.12;48.33
63096;BME280;49184;55.596;37.770;2022-07-23T07:34:24;99549.44;;;25.40;47.89
63096;BME280;49184;55.596;37.770;2022-07-23T07:36:50;99523.13;;;25.30;48.92
63096;BME280;49184;55.596;37.770;2022-07-23T07:42:51;99516.66;;;25.40;48.78
63096;BME280;49184;55.596;37.770;2022-07-23T07:45:21;99504.66;;;25.36;47.92
63096;BME280;49184;55.596;37.770;2022-07-23T07:47:47;99561.59;;;25.78;47.34
63096;BME280;49184;55.596;37.770;2022-07-23T07:50:20;99512.91;;;25.61;48.34
63096;BME280;49184;55.596;37.770;2022-07-23T07:52:46;99522.41;;;25.78;46.89
63096;BME280;49184;55.596;37.770;2022-07-23T07:55:13;99552.69;;;26.01;47.87
63096;BME280;49184;55.596;37.770;2022-07-23T07:58:02;99549.91;;;25.97;47.08
63096;BME280;49184;55.596;37.770;2022-07-23T08:00:29;99533.56;;;25.85;45.36
63096;BME280;49184;55.596;37.770;2022-07-23T08:02:55;99551.09;;;26.00;45.57
63096;BME280;49184;55.596;37.770;2022-07-23T08:05:23;99517.59;;;25.82;46.40
63096;BME280;49184;55.596;37.770;2022-07-23T08:07:49;99506.81;;;25.81;45.63
63096;BME280;49184;55.596;37.770;2022-07-23T08:10:22;99545.75;;;26.16;45.17
63096;BME280;49184;55.596;37.770;2022-07-23T08:12:52;99567.19;;;26.37;44.44
63096;BME280;49184;55.596;37.770;2022-07-23T08:15:20;99569.16;;;26.40;44.61
63096;BME280;49184;55.596;37.770;2022-07-23T08:17:48;99522.50;;;26.19;45.33
63096;BME280;49184;55.596;37.770;2022-07-23T08:20:16;99575.44;;;26.55;44.68
63096;BME280;49184;55.596;37.770;2022-07-23T08:25:26;99557.34;;;26.63;46.39
63096;BME280;49184;55.596;37.770;2022-07-23T08:27:57;99538.97;;;26.59;46.39
63096;BME280;49184;55.596;37.770;2022-07-23T08:30:25;99559.59;;;26.79;44.03
63096;BME280;49184;55.596;37.770;2022-07-23T08:32:57;99539.31;;;26.64;43.32
63096;BME280;49184;55.596;37.770;2022-07-23T08:35:30;99557.56;;;26.83;44.73
63096;BME280;49184;55.596;37.770;2022-07-23T08:38:25;99560.97;;;26.98;45.40
63096;BME280;49184;55.596;37.770;2022-07-23T08:40:54;99544.47;;;27.04;45.10
63096;BME280;49184;55.596;37.770;2022-07-23T08:43:26;99524.59;;;26.91;43.15
63096;BME280;49184;55.596;37.770;2022-07-23T08:45:54;99524.16;;;26.96;43.02
63096;BME280;49184;55.596;37.770;2022-07-23T08:48:27;99535.56;;;27.12;43.13
63096;BME280;49184;55.596;37.770;2022-07-23T08:50:56;99502.19;;;26.87;41.75
63096;BME280;49184;55.596;37.770;2022-07-23T08:53:25;99499.00;;;26.89;41.70
63096;BME280;49184;55.596;37.770;2022-07-23T08:55:55;99514.41;;;27.04;40.87
63096;BME280;49184;55.596;37.770;2022-07-23T08:58:23;99508.41;;;27.06;43.08
63096;BME280;49184;55.596;37.770;2022-07-23T09:00:49;99521.31;;;27.30;43.13
63096;BME280;49184;55.596;37.770;2022-07-23T09:03:22;99504.69;;;27.16;43.67
63096;BME280;49184;55.596;37.770;2022-07-23T09:05:53;99531.59;;;27.40;43.97
63096;BME280;49184;55.596;37.770;2022-07-23T09:08:41;99495.47;;;27.15;43.43
63096;BME280;49184;55.596;37.770;2022-07-23T09:11:08;99499.84;;;27.16;44.22
63096;BME280;49184;55.596;37.770;2022-07-23T09:13:46;99512.91;;;27.30;43.55
63096;BME280;49184;55.596;37.770;2022-07-23T09:16:18;99516.44;;;27.34;43.03
63096;BME280;49184;55.596;37.770;2022-07-23T09:18:50;99504.97;;;27.25;41.52
63096;BME280;49184;55.596;37.770;2022-07-23T09:21:24;99532.34;;;27.45;42.60
63096;BME280;49184;55.596;37.770;2022-07-23T09:26:44;99519.91;;;27.46;43.08
63096;BME280;49184;55.596;37.770;2022-07-23T09:29:29;99495.03;;;27.17;41.52
63096;BME280;49184;55.596;37.770;2022-07-23T09:32:00;99501.66;;;27.30;42.21
63096;BME280;49184;55.596;37.770;2022-07-23T09:34:30;99518.25;;;27.48;42.70
63096;BME280;49184;55.596;37.770;2022-07-23T09:37:18;99469.84;;;27.10;41.67
63096;BME280;49184;55.596;37.770;2022-07-23T09:39:47;99452.38;;;26.95;42.71
63096;BME280;49184;55.596;37.770;2022-07-23T09:42:41;99517.91;;;27.46;41.45
63096;BME280;49184;55.596;37.770;2022-07-23T09:45:23;99483.56;;;27.35;42.68
63096;BME280;49184;55.596;37.770;2022-07-23T09:47:49;99483.25;;;27.56;44.96
63096;BME280;49184;55.596;37.770;2022-07-23T09:50:19;99455.69;;;27.48;43.82
63096;BME280;49184;55.596;37.770;2022-07-23T09:52:47;99504.03;;;27.90;41.11
63096;BME280;49184;55.596;37.770;2022-07-23T09:55:15;99477.69;;;27.80;39.65
63096;BME280;49184;55.596;37.770;2022-07-23T09:57:42;99488.53;;;27.78;40.08
63096;BME280;49184;55.596;37.770;2022-07-23T10:00:12;99486.06;;;27.83;40.28
63096;BME280;49184;55.596;37.770;2022-07-23T10:02:39;99473.50;;;27.92;42.14
63096;BME280;49184;55.596;37.770;2022-07-23T10:05:24;99465.22;;;27.81;39.71
63096;BME280;49184;55.596;37.770;2022-07-23T10:08:12;99474.88;;;28.03;40.06
63096;BME280;49184;55.596;37.770;2022-07-23T10:10:57;99467.63;;;28.06;40.60
63096;BME280;49184;55.596;37.770;2022-07-23T10:13:40;99465.06;;;28.15;40.15
63096;BME280;49184;55.596;37.770;2022-07-23T10:17:27;99500.75;;;28.42;38.41
63096;BME280;49184;55.596;37.770;2022-07-23T10:19:54;99449.25;;;28.01;37.82
63096;BME280;49184;55.596;37.770;2022-07-23T10:22:26;99486.97;;;28.47;39.80
63096;BME280;49184;55.596;37.770;2022-07-23T10:31:16;99479.41;;;28.64;39.04
63096;BME280;49184;55.596;37.770;2022-07-23T10:36:49;99429.66;;;28.18;37.33
63096;BME280;49184;55.596;37.770;2022-07-23T10:39:28;99442.44;;;28.22;38.08
63096;BME280;49184;55.596;37.770;2022-07-23T10:42:15;99472.78;;;28.31;37.17
63096;BME280;49184;55.596;37.770;2022-07-23T10:44:47;99472.72;;;28.11;37.21
63096;BME280;49184;55.596;37.770;2022-07-23T10:47:30;99432.53;;;27.67;38.85
63096;BME280;49184;55.596;37.770;2022-07-23T10:50:29;99424.69;;;27.55;38.10
63096;BME280;49184;55.596;37.770;2022-07-23T10:53:14;99430.81;;;27.50;38.02
63096;BME280;49184;55.596;37.770;2022-07-23T10:55:44;99422.13;;;27.40;38.83
63096;BME280;49184;55.596;37.770;2022-07-23T10:58:11;99457.31;;;27.49;38.53
63096;BME280;49184;55.596;37.770;2022-07-23T11:00:42;99447.03;;;27.38;38.62
63096;BME280;49184;55.596;37.770;2022-07-23T11:03:36;99456.59;;;27.41;40.07
63096;BME280;49184;55.596;37.770;2022-07-23T11:06:04;99453.78;;;27.41;41.38
63096;BME280;49184;55.596;37.770;2022-07-23T11:08:31;99422.97;;;27.37;40.47
63096;BME280;49184;55.596;37.770;2022-07-23T11:13:32;99440.38;;;28.03;42.96
63096;BME280;49184;55.596;37.770;2022-07-23T11:18:58;99443.56;;;28.05;41.77
63096;BME280;49184;55.596;37.770;2022-07-23T11:24:03;99444.13;;;27.69;40.56
63096;BME280;49184;55.596;37.770;2022-07-23T11:26:59;99413.91;;;27.53;41.61
63096;BME280;49184;55.596;37.770;2022-07-23T11:31:53;99437.31;;;27.43;44.58
63096;BME280;49184;55.596;37.770;2022-07-23T11:34:41;99439.97;;;27.27;44.69
63096;BME280;49184;55.596;37.770;2022-07-23T11:37:10;99376.56;;;26.71;45.44
63096;BME280;49184;55.596;37.770;2022-07-23T11:39:38;99411.25;;;26.85;41.24
63096;BME280;49184;55.596;37.770;2022-07-23T11:42:06;99384.88;;;26.82;41.10
63096;BME280;49184;55.596;37.770;2022-07-23T11:44:40;99431.34;;;27.10;43.18
63096;BME280;49184;55.596;37.770;2022-07-23T11:47:10;99416.63;;;27.03;41.54
63096;BME280;49184;55.596;37.770;2022-07-23T11:49:53;99436.03;;;27.21;41.84
63096;BME280;49184;55.596;37.770;2022-07-23T11:52:20;99421.69;;;27.15;41.50
63096;BME280;49184;55.596;37.770;2022-07-23T11:55:09;99428.13;;;27.15;43.75
63096;BME280;49184;55.596;37.770;2022-07-23T11:57:39;99423.38;;;27.09;45.77
63096;BME280;49184;55.596;37.770;2022-07-23T12:00:17;99422.34;;;26.96;44.23
63096;BME280;49184;55.596;37.770;2022-07-23T12:02:47;99431.91;;;26.98;43.35
63096;BME280;49184;55.596;37.770;2022-07-23T12:05:21;99437.53;;;26.98;46.10
63096;BME280;49184;55.596;37.770;2022-07-23T12:07:49;99429.41;;;27.34;45.53
63096;BME280;49184;55.596;37.770;2022-07-23T12:10:20;99406.56;;;27.59;42.81
63096;BME280;49184;55.596;37.770;2022-07-23T12:12:55;99391.72;;;27.86;43.03
63096;BME280;49184;55.596;37.770;2022-07-23T12:15:30;99406.69;;;28.23;40.06
63096;BME280;49184;55.596;37.770;2022-07-23T12:18:00;99389.53;;;28.37;40.31
63096;BME280;49184;55.596;37.770;2022-07-23T12:20:33;99391.16;;;28.58;37.63
63096;BME280;49184;55.596;37.770;2022-07-23T12:23:04;99399.03;;;28.83;37.91
63096;BME280;49184;55.596;37.770;2022-07-23T12:25:33;99396.34;;;28.96;37.56
63096;BME280;49184;55.596;37.770;2022-07-23T12:28:22;99402.13;;;29.09;38.00
63096;BME280;49184;55.596;37.770;2022-07-23T12:30:55;99384.38;;;29.12;39.26
63096;BME280;49184;55.596;37.770;2022-07-23T12:33:28;99393.34;;;29.39;39.25
63096;BME280;49184;55.596;37.770;2022-07-23T12:35:58;99369.25;;;29.38;37.51
63096;BME280;49184;55.596;37.770;2022-07-23T12:38:26;99374.25;;;29.47;38.61
63096;BME280;49184;55.596;37.770;2022-07-23T12:40:58;99371.09;;;29.45;37.94
63096;BME280;49184;55.596;37.770;2022-07-23T12:43:31;99382.22;;;29.68;37.83
63096;BME280;49184;55.596;37.770;2022-07-23T12:46:12;99382.63;;;29.83;36.82
63096;BME280;49184;55.596;37.770;2022-07-23T12:51:29;99370.97;;;29.98;36.55
63096;BME280;49184;55.596;37.770;2022-07-23T12:54:08;99380.91;;;30.18;35.80
63096;BME280;49184;55.596;37.770;2022-07-23T12:56:40;99361.69;;;30.13;33.75
63096;BME280;49184;55.596;37.770;2022-07-23T12:59:11;99385.13;;;30.39;36.24
63096;BME280;49184;55.596;37.770;2022-07-23T13:01:40;99368.47;;;30.45;36.99
63096;BME280;49184;55.596;37.770;2022-07-23T13:04:11;99380.59;;;30.71;34.01
63096;BME280;49184;55.596;37.770;2022-07-23T13:06:42;99369.28;;;30.58;33.10
63096;BME280;49184;55.596;37.770;2022-07-23T13:09:12;99374.72;;;30.65;35.34
63096;BME280;49184;55.596;37.770;2022-07-23T13:11:39;99371.72;;;30.85;37.58
63096;BME280;49184;55.596;37.770;2022-07-23T13:14:06;99352.91;;;30.53;34.05
63096;BME280;49184;55.596;37.770;2022-07-23T13:16:32;99368.38;;;30.19;33.52
63096;BME280;49184;55.596;37.770;2022-07-23T13:19:00;99378.03;;;30.35;35.37
63096;BME280;49184;55.596;37.770;2022-07-23T13:21:28;99375.31;;;30.31;34.26
63096;BME280;49184;55.596;37.770;2022-07-23T13:23:55;99371.81;;;30.27;33.22
63096;BME280;49184;55.596;37.770;2022-07-23T13:26:21;99350.75;;;30.15;33.12
63096;BME280;49184;55.596;37.770;2022-07-23T13:28:48;99360.97;;;30.09;33.20
63096;BME280;49184;55.596;37.770;2022-07-23T13:31:17;99368.13;;;30.14;34.09
63096;BME280;49184;55.596;37.770;2022-07-23T13:33:43;99344.25;;;30.18;34.07
63096;BME280;49184;55.596;37.770;2022-07-23T13:36:11;99346.84;;;30.26;36.71
63096;BME280;49184;55.596;37.770;2022-07-23T13:38:37;99343.84;;;30.16;37.24
63096;BME280;49184;55.596;37.770;2022-07-23T13:41:05;99346.63;;;30.20;33.71
63096;BME280;49184;55.596;37.770;2022-07-23T13:43:32;99333.03;;;30.15;35.12
63096;BME280;49184;55.596;37.770;2022-07-23T13:45:58;99338.06;;;30.24;33.39
63096;BME280;49184;55.596;37.770;2022-07-23T13:48:25;99345.97;;;30.29;35.84
63096;BME280;49184;55.596;37.770;2022-07-23T13:50:51;99359.06;;;30.35;38.96
63096;BME280;49184;55.596;37.770;2022-07-23T13:53:19;99351.50;;;30.32;34.52
63096;BME280;49184;55.596;37.770;2022-07-23T13:55:48;99347.44;;;30.04;35.59
63096;BME280;49184;55.596;37.770;2022-07-23T13:58:14;99356.06;;;30.13;34.43